sensor_id;sensor_type;location;lat;lon;timestamp;P1;durP1;ratioP1;P2;durP2;ratioP2
60292;SDS011;52402;52.670;6.750;2022-08-27T00:02:13;6.82;;;2.55;;
60292;SDS011;52402;52.670;6.750;2022-08-27T00:04:39;7.10;;;2.60;;
60292;SDS011;52402;52.670;6.750;2022-08-27T00:07:06;9.75;;;2.85;;
60292;SDS011;52402;52.670;6.750;2022-08-27T00:09:33;9.02;;;3.00;;
60292;SDS011;52402;52.670;6.750;2022-08-27T00:11:59;6.95;;;3.08;;
60292;SDS011;52402;52.670;6.750;2022-08-27T00:14:26;8.00;;;2.72;;
60292;SDS011;52402;52.670;6.750;2022-08-27T00:16:52;7.75;;;3.25;;
60292;SDS011;52402;52.670;6.750;2022-08-27T00:19:19;8.23;;;3.10;;
60292;SDS011;52402;52.670;6.750;2022-08-27T00:21:45;7.55;;;3.00;;
60292;SDS011;52402;52.670;6.750;2022-08-27T00:24:11;7.22;;;2.72;;
60292;SDS011;52402;52.670;6.750;2022-08-27T00:26:37;7.85;;;3.00;;
60292;SDS011;52402;52.670;6.750;2022-08-27T00:29:03;7.25;;;2.97;;
60292;SDS011;52402;52.670;6.750;2022-08-27T00:31:29;7.95;;;2.80;;
60292;SDS011;52402;52.670;6.750;2022-08-27T00:33:55;8.73;;;3.00;;
60292;SDS011;52402;52.670;6.750;2022-08-27T00:36:20;9.35;;;3.28;;
60292;SDS011;52402;52.670;6.750;2022-08-27T00:38:47;8.48;;;3.00;;
60292;SDS011;52402;52.670;6.750;2022-08-27T00:41:13;9.10;;;3.08;;
60292;SDS011;52402;52.670;6.750;2022-08-27T00:43:58;7.75;;;2.75;;
60292;SDS011;52402;52.670;6.750;2022-08-27T00:46:27;8.93;;;3.22;;
60292;SDS011;52402;52.670;6.750;2022-08-27T00:49:04;8.13;;;3.35;;
60292;SDS011;52402;52.670;6.750;2022-08-27T00:51:52;7.78;;;3.53;;
60292;SDS011;52402;52.670;6.750;2022-08-27T00:54:22;9.38;;;3.55;;
60292;SDS011;52402;52.670;6.750;2022-08-27T00:56:51;8.30;;;3.03;;
60292;SDS011;52402;52.670;6.750;2022-08-27T00:59:18;9.10;;;3.10;;
60292;SDS011;52402;52.670;6.750;2022-08-27T01:01:46;7.13;;;2.87;;
60292;SDS011;52402;52.670;6.750;2022-08-27T01:04:31;8.20;;;3.03;;
60292;SDS011;52402;52.670;6.750;2022-08-27T01:06:58;7.90;;;2.88;;
60292;SDS011;52402;52.670;6.750;2022-08-27T01:09:24;7.65;;;3.15;;
60292;SDS011;52402;52.670;6.750;2022-08-27T01:11:51;8.93;;;3.20;;
60292;SDS011;52402;52.670;6.750;2022-08-27T01:14:19;8.60;;;3.33;;
60292;SDS011;52402;52.670;6.750;2022-08-27T01:16:47;7.45;;;3.20;;
60292;SDS011;52402;52.670;6.750;2022-08-27T01:19:21;7.22;;;3.30;;
60292;SDS011;52402;52.670;6.750;2022-08-27T01:24:36;9.18;;;2.90;;
60292;SDS011;52402;52.670;6.750;2022-08-27T01:27:17;9.40;;;3.50;;
60292;SDS011;52402;52.670;6.750;2022-08-27T01:29:46;7.60;;;3.30;;
60292;SDS011;52402;52.670;6.750;2022-08-27T01:32:20;7.75;;;3.15;;
60292;SDS011;52402;52.670;6.750;2022-08-27T01:34:49;8.57;;;3.33;;
60292;SDS011;52402;52.670;6.750;2022-08-27T01:37:15;9.55;;;3.47;;
60292;SDS011;52402;52.670;6.750;2022-08-27T01:39:42;8.23;;;3.40;;
60292;SDS011;52402;52.670;6.750;2022-08-27T01:42:09;7.75;;;3.60;;
60292;SDS011;52402;52.670;6.750;2022-08-27T01:44:44;9.18;;;3.63;;
60292;SDS011;52402;52.670;6.750;2022-08-27T01:47:13;9.85;;;3.60;;
60292;SDS011;52402;52.670;6.750;2022-08-27T01:49:39;6.07;;;3.38;;
60292;SDS011;52402;52.670;6.750;2022-08-27T01:52:05;7.38;;;3.50;;
60292;SDS011;52402;52.670;6.750;2022-08-27T01:54:31;8.13;;;3.70;;
60292;SDS011;52402;52.670;6.750;2022-08-27T01:56:58;8.70;;;3.83;;
60292;SDS011;52402;52.670;6.750;2022-08-27T01:59:23;6.80;;;4.00;;
60292;SDS011;52402;52.670;6.750;2022-08-27T02:01:50;6.32;;;3.42;;
60292;SDS011;52402;52.670;6.750;2022-08-27T02:04:17;9.65;;;4.55;;
60292;SDS011;52402;52.670;6.750;2022-08-27T02:06:43;9.55;;;3.70;;
60292;SDS011;52402;52.670;6.750;2022-08-27T02:09:08;7.00;;;3.60;;
60292;SDS011;52402;52.670;6.750;2022-08-27T02:11:34;8.65;;;4.18;;
60292;SDS011;52402;52.670;6.750;2022-08-27T02:14:00;9.50;;;3.90;;
60292;SDS011;52402;52.670;6.750;2022-08-27T02:16:25;8.30;;;3.70;;
60292;SDS011;52402;52.670;6.750;2022-08-27T02:18:51;6.10;;;3.70;;
60292;SDS011;52402;52.670;6.750;2022-08-27T02:21:18;7.60;;;4.43;;
60292;SDS011;52402;52.670;6.750;2022-08-27T02:23:44;8.23;;;4.00;;
60292;SDS011;52402;52.670;6.750;2022-08-27T02:26:10;9.48;;;4.15;;
60292;SDS011;52402;52.670;6.750;2022-08-27T02:28:35;7.65;;;3.63;;
60292;SDS011;52402;52.670;6.750;2022-08-27T02:31:01;6.00;;;3.42;;
60292;SDS011;52402;52.670;6.750;2022-08-27T02:33:27;7.93;;;4.22;;
60292;SDS011;52402;52.670;6.750;2022-08-27T02:35:53;7.63;;;4.18;;
60292;SDS011;52402;52.670;6.750;2022-08-27T02:38:19;7.68;;;3.70;;
60292;SDS011;52402;52.670;6.750;2022-08-27T02:40:44;8.90;;;3.55;;
60292;SDS011;52402;52.670;6.750;2022-08-27T02:43:10;6.97;;;3.53;;
60292;SDS011;52402;52.670;6.750;2022-08-27T02:45:36;10.70;;;3.80;;
60292;SDS011;52402;52.670;6.750;2022-08-27T02:48:02;7.90;;;3.47;;
60292;SDS011;52402;52.670;6.750;2022-08-27T02:50:29;8.65;;;3.97;;
60292;SDS011;52402;52.670;6.750;2022-08-27T02:52:54;9.18;;;3.70;;
60292;SDS011;52402;52.670;6.750;2022-08-27T02:55:20;7.25;;;3.20;;
60292;SDS011;52402;52.670;6.750;2022-08-27T02:57:46;7.00;;;3.20;;
60292;SDS011;52402;52.670;6.750;2022-08-27T03:00:14;5.82;;;3.10;;
60292;SDS011;52402;52.670;6.750;2022-08-27T03:02:42;7.65;;;3.40;;
60292;SDS011;52402;52.670;6.750;2022-08-27T03:05:08;8.38;;;3.42;;
60292;SDS011;52402;52.670;6.750;2022-08-27T03:07:34;8.50;;;3.10;;
60292;SDS011;52402;52.670;6.750;2022-08-27T03:10:01;7.47;;;3.33;;
60292;SDS011;52402;52.670;6.750;2022-08-27T03:12:28;7.18;;;3.10;;
60292;SDS011;52402;52.670;6.750;2022-08-27T03:14:53;6.82;;;3.13;;
60292;SDS011;52402;52.670;6.750;2022-08-27T03:17:19;6.00;;;3.03;;
60292;SDS011;52402;52.670;6.750;2022-08-27T03:20:03;6.50;;;3.20;;
60292;SDS011;52402;52.670;6.750;2022-08-27T03:22:30;6.63;;;3.08;;
60292;SDS011;52402;52.670;6.750;2022-08-27T03:24:56;6.80;;;3.05;;
60292;SDS011;52402;52.670;6.750;2022-08-27T03:27:21;7.93;;;2.90;;
60292;SDS011;52402;52.670;6.750;2022-08-27T03:29:47;9.02;;;3.13;;
60292;SDS011;52402;52.670;6.750;2022-08-27T03:32:13;5.80;;;2.75;;
60292;SDS011;52402;52.670;6.750;2022-08-27T03:34:38;7.88;;;3.08;;
60292;SDS011;52402;52.670;6.750;2022-08-27T03:37:04;7.68;;;2.90;;
60292;SDS011;52402;52.670;6.750;2022-08-27T03:39:29;6.30;;;2.97;;
60292;SDS011;52402;52.670;6.750;2022-08-27T03:41:55;8.65;;;3.10;;
60292;SDS011;52402;52.670;6.750;2022-08-27T03:44:21;6.40;;;2.63;;
60292;SDS011;52402;52.670;6.750;2022-08-27T03:46:48;5.95;;;2.80;;
60292;SDS011;52402;52.670;6.750;2022-08-27T03:49:15;5.13;;;2.60;;
60292;SDS011;52402;52.670;6.750;2022-08-27T03:51:42;7.07;;;2.80;;
60292;SDS011;52402;52.670;6.750;2022-08-27T03:54:08;6.82;;;2.60;;
60292;SDS011;52402;52.670;6.750;2022-08-27T03:56:34;6.45;;;2.80;;
60292;SDS011;52402;52.670;6.750;2022-08-27T03:59:03;6.50;;;3.17;;
60292;SDS011;52402;52.670;6.750;2022-08-27T04:01:32;8.13;;;3.30;;
60292;SDS011;52402;52.670;6.750;2022-08-27T04:03:57;6.13;;;2.90;;
60292;SDS011;52402;52.670;6.750;2022-08-27T04:06:23;8.13;;;3.22;;
60292;SDS011;52402;52.670;6.750;2022-08-27T04:08:49;7.75;;;3.20;;
60292;SDS011;52402;52.670;6.750;2022-08-27T04:11:14;6.60;;;2.90;;
60292;SDS011;52402;52.670;6.750;2022-08-27T04:13:40;6.57;;;3.17;;
60292;SDS011;52402;52.670;6.750;2022-08-27T04:16:06;7.65;;;2.97;;
60292;SDS011;52402;52.670;6.750;2022-08-27T04:18:32;5.47;;;2.75;;
60292;SDS011;52402;52.670;6.750;2022-08-27T04:20:58;6.85;;;3.35;;
60292;SDS011;52402;52.670;6.750;2022-08-27T04:23:31;7.95;;;3.22;;
60292;SDS011;52402;52.670;6.750;2022-08-27T04:25:58;9.20;;;3.60;;
60292;SDS011;52402;52.670;6.750;2022-08-27T04:28:24;6.85;;;3.20;;
60292;SDS011;52402;52.670;6.750;2022-08-27T04:30:50;6.43;;;3.25;;
60292;SDS011;52402;52.670;6.750;2022-08-27T04:33:15;8.60;;;3.28;;
60292;SDS011;52402;52.670;6.750;2022-08-27T04:35:41;7.35;;;3.42;;
60292;SDS011;52402;52.670;6.750;2022-08-27T04:38:07;7.55;;;3.50;;
60292;SDS011;52402;52.670;6.750;2022-08-27T04:40:32;6.82;;;3.50;;
60292;SDS011;52402;52.670;6.750;2022-08-27T04:43:18;8.68;;;3.75;;
60292;SDS011;52402;52.670;6.750;2022-08-27T04:45:48;8.55;;;3.80;;
60292;SDS011;52402;52.670;6.750;2022-08-27T04:48:15;6.97;;;3.67;;
60292;SDS011;52402;52.670;6.750;2022-08-27T04:50:43;7.35;;;3.65;;
60292;SDS011;52402;52.670;6.750;2022-08-27T04:53:10;8.10;;;3.53;;
60292;SDS011;52402;52.670;6.750;2022-08-27T04:55:40;9.38;;;3.75;;
60292;SDS011;52402;52.670;6.750;2022-08-27T04:58:10;8.73;;;3.58;;
60292;SDS011;52402;52.670;6.750;2022-08-27T05:00:43;7.55;;;3.88;;
60292;SDS011;52402;52.670;6.750;2022-08-27T05:03:12;7.68;;;4.10;;
60292;SDS011;52402;52.670;6.750;2022-08-27T05:05:39;7.32;;;3.70;;
60292;SDS011;52402;52.670;6.750;2022-08-27T05:08:06;6.78;;;3.58;;
60292;SDS011;52402;52.670;6.750;2022-08-27T05:10:42;7.65;;;3.83;;
60292;SDS011;52402;52.670;6.750;2022-08-27T05:13:10;8.48;;;3.65;;
60292;SDS011;52402;52.670;6.750;2022-08-27T05:15:36;6.82;;;3.70;;
60292;SDS011;52402;52.670;6.750;2022-08-27T05:18:03;8.80;;;3.85;;
60292;SDS011;52402;52.670;6.750;2022-08-27T05:20:29;7.07;;;3.70;;
60292;SDS011;52402;52.670;6.750;2022-08-27T05:22:55;7.82;;;3.72;;
60292;SDS011;52402;52.670;6.750;2022-08-27T05:25:22;7.47;;;3.65;;
60292;SDS011;52402;52.670;6.750;2022-08-27T05:27:48;5.95;;;3.47;;
60292;SDS011;52402;52.670;6.750;2022-08-27T05:30:14;10.13;;;3.80;;
60292;SDS011;52402;52.670;6.750;2022-08-27T05:32:40;6.95;;;3.85;;
60292;SDS011;52402;52.670;6.750;2022-08-27T05:35:06;7.78;;;4.03;;
60292;SDS011;52402;52.670;6.750;2022-08-27T05:37:33;9.70;;;4.05;;
60292;SDS011;52402;52.670;6.750;2022-08-27T05:39:59;9.00;;;4.05;;
60292;SDS011;52402;52.670;6.750;2022-08-27T05:42:25;8.85;;;4.32;;
60292;SDS011;52402;52.670;6.750;2022-08-27T05:44:53;8.48;;;3.50;;
60292;SDS011;52402;52.670;6.750;2022-08-27T05:47:19;7.50;;;3.97;;
60292;SDS011;52402;52.670;6.750;2022-08-27T05:49:45;7.68;;;3.88;;
60292;SDS011;52402;52.670;6.750;2022-08-27T05:52:10;7.35;;;3.78;;
60292;SDS011;52402;52.670;6.750;2022-08-27T05:54:37;7.60;;;3.60;;
60292;SDS011;52402;52.670;6.750;2022-08-27T05:57:03;7.88;;;4.00;;
60292;SDS011;52402;52.670;6.750;2022-08-27T05:59:29;7.25;;;3.55;;
60292;SDS011;52402;52.670;6.750;2022-08-27T06:02:13;8.75;;;4.22;;
60292;SDS011;52402;52.670;6.750;2022-08-27T06:04:39;9.40;;;3.80;;
60292;SDS011;52402;52.670;6.750;2022-08-27T06:07:06;7.75;;;3.55;;
60292;SDS011;52402;52.670;6.750;2022-08-27T06:09:34;8.68;;;3.28;;
60292;SDS011;52402;52.670;6.750;2022-08-27T06:12:00;7.47;;;3.17;;
60292;SDS011;52402;52.670;6.750;2022-08-27T06:14:26;9.90;;;3.60;;
60292;SDS011;52402;52.670;6.750;2022-08-27T06:16:52;8.50;;;3.72;;
60292;SDS011;52402;52.670;6.750;2022-08-27T06:19:18;9.60;;;3.42;;
60292;SDS011;52402;52.670;6.750;2022-08-27T06:21:44;8.00;;;3.10;;
60292;SDS011;52402;52.670;6.750;2022-08-27T06:24:10;8.07;;;3.22;;
60292;SDS011;52402;52.670;6.750;2022-08-27T06:26:37;8.50;;;3.20;;
60292;SDS011;52402;52.670;6.750;2022-08-27T06:29:04;7.20;;;3.03;;
60292;SDS011;52402;52.670;6.750;2022-08-27T06:31:31;7.82;;;2.60;;
60292;SDS011;52402;52.670;6.750;2022-08-27T06:34:00;8.80;;;3.00;;
60292;SDS011;52402;52.670;6.750;2022-08-27T06:36:27;7.00;;;2.67;;
60292;SDS011;52402;52.670;6.750;2022-08-27T06:38:54;8.30;;;3.17;;
60292;SDS011;52402;52.670;6.750;2022-08-27T06:41:23;7.10;;;2.75;;
60292;SDS011;52402;52.670;6.750;2022-08-27T06:43:50;7.40;;;2.50;;
60292;SDS011;52402;52.670;6.750;2022-08-27T06:46:18;8.05;;;2.90;;
60292;SDS011;52402;52.670;6.750;2022-08-27T06:48:46;7.55;;;2.72;;
60292;SDS011;52402;52.670;6.750;2022-08-27T06:51:16;5.57;;;2.53;;
60292;SDS011;52402;52.670;6.750;2022-08-27T06:53:44;8.38;;;3.00;;
60292;SDS011;52402;52.670;6.750;2022-08-27T06:56:11;9.05;;;2.70;;
60292;SDS011;52402;52.670;6.750;2022-08-27T06:58:39;7.43;;;2.42;;
60292;SDS011;52402;52.670;6.750;2022-08-27T07:01:15;8.35;;;2.63;;
60292;SDS011;52402;52.670;6.750;2022-08-27T07:03:44;7.13;;;2.88;;
60292;SDS011;52402;52.670;6.750;2022-08-27T07:06:10;6.32;;;2.60;;
60292;SDS011;52402;52.670;6.750;2022-08-27T07:08:38;6.07;;;2.88;;
60292;SDS011;52402;52.670;6.750;2022-08-27T07:11:05;6.70;;;2.35;;
60292;SDS011;52402;52.670;6.750;2022-08-27T07:13:32;7.07;;;2.40;;
60292;SDS011;52402;52.670;6.750;2022-08-27T07:15:58;8.35;;;2.50;;
60292;SDS011;52402;52.670;6.750;2022-08-27T07:18:27;7.15;;;2.65;;
60292;SDS011;52402;52.670;6.750;2022-08-27T07:20:53;7.93;;;2.95;;
60292;SDS011;52402;52.670;6.750;2022-08-27T07:23:19;6.75;;;2.38;;
60292;SDS011;52402;52.670;6.750;2022-08-27T07:25:45;8.45;;;2.40;;
60292;SDS011;52402;52.670;6.750;2022-08-27T07:28:11;8.25;;;2.42;;
60292;SDS011;52402;52.670;6.750;2022-08-27T07:30:36;7.22;;;2.35;;
60292;SDS011;52402;52.670;6.750;2022-08-27T07:33:02;8.57;;;2.35;;
60292;SDS011;52402;52.670;6.750;2022-08-27T07:35:28;7.68;;;2.90;;
60292;SDS011;52402;52.670;6.750;2022-08-27T07:37:55;6.70;;;2.47;;
60292;SDS011;52402;52.670;6.750;2022-08-27T07:40:22;6.80;;;2.35;;
60292;SDS011;52402;52.670;6.750;2022-08-27T07:42:47;9.18;;;2.58;;
60292;SDS011;52402;52.670;6.750;2022-08-27T07:45:31;8.32;;;2.45;;
60292;SDS011;52402;52.670;6.750;2022-08-27T07:47:57;7.00;;;2.17;;
60292;SDS011;52402;52.670;6.750;2022-08-27T07:50:23;7.93;;;2.20;;
60292;SDS011;52402;52.670;6.750;2022-08-27T07:52:49;7.43;;;2.40;;
60292;SDS011;52402;52.670;6.750;2022-08-27T07:55:15;6.75;;;2.20;;
60292;SDS011;52402;52.670;6.750;2022-08-27T07:57:41;6.55;;;2.20;;
60292;SDS011;52402;52.670;6.750;2022-08-27T08:00:09;6.20;;;2.20;;
60292;SDS011;52402;52.670;6.750;2022-08-27T08:02:36;7.78;;;2.25;;
60292;SDS011;52402;52.670;6.750;2022-08-27T08:05:02;8.77;;;2.60;;
60292;SDS011;52402;52.670;6.750;2022-08-27T08:07:29;7.95;;;2.38;;
60292;SDS011;52402;52.670;6.750;2022-08-27T08:09:55;5.68;;;1.90;;
60292;SDS011;52402;52.670;6.750;2022-08-27T08:12:21;6.40;;;2.20;;
60292;SDS011;52402;52.670;6.750;2022-08-27T08:14:47;10.00;;;2.80;;
60292;SDS011;52402;52.670;6.750;2022-08-27T08:17:13;6.38;;;2.20;;
60292;SDS011;52402;52.670;6.750;2022-08-27T08:19:39;7.40;;;2.10;;
60292;SDS011;52402;52.670;6.750;2022-08-27T08:22:05;5.28;;;2.30;;
60292;SDS011;52402;52.670;6.750;2022-08-27T08:24:31;5.65;;;1.73;;
60292;SDS011;52402;52.670;6.750;2022-08-27T08:26:57;6.53;;;2.00;;
60292;SDS011;52402;52.670;6.750;2022-08-27T08:29:23;8.02;;;2.08;;
60292;SDS011;52402;52.670;6.750;2022-08-27T08:31:49;7.78;;;2.08;;
60292;SDS011;52402;52.670;6.750;2022-08-27T08:34:14;7.05;;;2.15;;
60292;SDS011;52402;52.670;6.750;2022-08-27T08:36:40;7.28;;;2.20;;
60292;SDS011;52402;52.670;6.750;2022-08-27T08:39:05;8.70;;;2.03;;
60292;SDS011;52402;52.670;6.750;2022-08-27T08:46:52;6.80;;;2.00;;
60292;SDS011;52402;52.670;6.750;2022-08-27T08:52:24;8.68;;;2.20;;
60292;SDS011;52402;52.670;6.750;2022-08-27T08:55:06;9.30;;;2.03;;
60292;SDS011;52402;52.670;6.750;2022-08-27T09:00:32;6.68;;;2.15;;
60292;SDS011;52402;52.670;6.750;2022-08-27T09:02:58;6.63;;;2.25;;
60292;SDS011;52402;52.670;6.750;2022-08-27T09:05:24;8.13;;;2.03;;
60292;SDS011;52402;52.670;6.750;2022-08-27T09:13:05;9.00;;;2.35;;
60292;SDS011;52402;52.670;6.750;2022-08-27T09:15:40;8.73;;;2.20;;
60292;SDS011;52402;52.670;6.750;2022-08-27T09:18:09;6.43;;;2.20;;
60292;SDS011;52402;52.670;6.750;2022-08-27T09:20:37;8.93;;;2.20;;
60292;SDS011;52402;52.670;6.750;2022-08-27T09:23:25;7.60;;;1.98;;
60292;SDS011;52402;52.670;6.750;2022-08-27T09:26:17;6.60;;;2.00;;
60292;SDS011;52402;52.670;6.750;2022-08-27T09:28:45;8.77;;;2.85;;
60292;SDS011;52402;52.670;6.750;2022-08-27T09:31:30;6.32;;;2.47;;
60292;SDS011;52402;52.670;6.750;2022-08-27T09:34:04;6.15;;;2.10;;
60292;SDS011;52402;52.670;6.750;2022-08-27T09:36:30;7.35;;;2.22;;
60292;SDS011;52402;52.670;6.750;2022-08-27T09:38:57;8.55;;;2.40;;
60292;SDS011;52402;52.670;6.750;2022-08-27T09:41:41;9.30;;;2.40;;
60292;SDS011;52402;52.670;6.750;2022-08-27T09:44:10;8.63;;;2.50;;
60292;SDS011;52402;52.670;6.750;2022-08-27T09:46:37;7.88;;;2.50;;
60292;SDS011;52402;52.670;6.750;2022-08-27T09:49:13;7.60;;;2.05;;
60292;SDS011;52402;52.670;6.750;2022-08-27T09:51:42;9.18;;;2.13;;
60292;SDS011;52402;52.670;6.750;2022-08-27T09:54:10;9.35;;;2.10;;
60292;SDS011;52402;52.670;6.750;2022-08-27T09:56:48;7.10;;;2.05;;
60292;SDS011;52402;52.670;6.750;2022-08-27T09:59:21;7.82;;;2.47;;
60292;SDS011;52402;52.670;6.750;2022-08-27T10:04:16;9.23;;;2.30;;
60292;SDS011;52402;52.670;6.750;2022-08-27T10:06:51;8.70;;;2.33;;
60292;SDS011;52402;52.670;6.750;2022-08-27T10:09:22;8.45;;;2.22;;
60292;SDS011;52402;52.670;6.750;2022-08-27T10:11:58;7.75;;;2.40;;
60292;SDS011;52402;52.670;6.750;2022-08-27T10:14:39;9.45;;;2.50;;
60292;SDS011;52402;52.670;6.750;2022-08-27T10:17:14;7.53;;;2.10;;
60292;SDS011;52402;52.670;6.750;2022-08-27T10:20:19;5.30;;;2.00;;
60292;SDS011;52402;52.670;6.750;2022-08-27T10:31:36;8.82;;;3.22;;
60292;SDS011;52402;52.670;6.750;2022-08-27T10:34:33;7.78;;;2.75;;
60292;SDS011;52402;52.670;6.750;2022-08-27T10:43:01;7.32;;;2.80;;
60292;SDS011;52402;52.670;6.750;2022-08-27T10:48:50;7.80;;;2.47;;
60292;SDS011;52402;52.670;6.750;2022-08-27T10:51:25;7.95;;;2.10;;
60292;SDS011;52402;52.670;6.750;2022-08-27T10:54:02;7.90;;;1.83;;
60292;SDS011;52402;52.670;6.750;2022-08-27T11:04:34;8.85;;;1.95;;
60292;SDS011;52402;52.670;6.750;2022-08-27T11:07:14;5.93;;;1.65;;
60292;SDS011;52402;52.670;6.750;2022-08-27T11:10:03;8.95;;;2.10;;
60292;SDS011;52402;52.670;6.750;2022-08-27T11:12:34;7.07;;;2.05;;
60292;SDS011;52402;52.670;6.750;2022-08-27T11:20:35;6.18;;;1.75;;
60292;SDS011;52402;52.670;6.750;2022-08-27T11:23:09;7.72;;;2.20;;
60292;SDS011;52402;52.670;6.750;2022-08-27T11:28:20;5.32;;;1.70;;
60292;SDS011;52402;52.670;6.750;2022-08-27T11:38:52;8.77;;;2.17;;
60292;SDS011;52402;52.670;6.750;2022-08-27T11:44:28;7.10;;;1.70;;
60292;SDS011;52402;52.670;6.750;2022-08-27T11:49:56;6.78;;;1.80;;
60292;SDS011;52402;52.670;6.750;2022-08-27T11:52:19;8.27;;;2.00;;
60292;SDS011;52402;52.670;6.750;2022-08-27T11:54:54;4.60;;;1.55;;
60292;SDS011;52402;52.670;6.750;2022-08-27T11:57:26;7.45;;;1.85;;
60292;SDS011;52402;52.670;6.750;2022-08-27T11:59:54;7.85;;;1.60;;
60292;SDS011;52402;52.670;6.750;2022-08-27T12:02:25;5.60;;;1.80;;
60292;SDS011;52402;52.670;6.750;2022-08-27T12:04:53;7.28;;;1.70;;
60292;SDS011;52402;52.670;6.750;2022-08-27T12:07:48;7.13;;;2.10;;
60292;SDS011;52402;52.670;6.750;2022-08-27T12:10:26;6.25;;;1.75;;
60292;SDS011;52402;52.670;6.750;2022-08-27T12:21:26;6.65;;;1.58;;
60292;SDS011;52402;52.670;6.750;2022-08-27T12:24:08;6.63;;;2.33;;
60292;SDS011;52402;52.670;6.750;2022-08-27T12:26:55;9.73;;;2.03;;
60292;SDS011;52402;52.670;6.750;2022-08-27T12:32:23;10.80;;;2.40;;
60292;SDS011;52402;52.670;6.750;2022-08-27T12:37:44;8.38;;;1.50;;
60292;SDS011;52402;52.670;6.750;2022-08-27T12:40:24;9.23;;;2.10;;
60292;SDS011;52402;52.670;6.750;2022-08-27T12:43:05;8.50;;;1.83;;
60292;SDS011;52402;52.670;6.750;2022-08-27T12:45:40;6.85;;;1.70;;
60292;SDS011;52402;52.670;6.750;2022-08-27T12:48:23;6.95;;;2.15;;
60292;SDS011;52402;52.670;6.750;2022-08-27T12:50:52;7.15;;;2.03;;
60292;SDS011;52402;52.670;6.750;2022-08-27T12:58:59;8.82;;;1.70;;
60292;SDS011;52402;52.670;6.750;2022-08-27T13:04:34;6.45;;;1.88;;
60292;SDS011;52402;52.670;6.750;2022-08-27T13:07:02;8.07;;;2.17;;
60292;SDS011;52402;52.670;6.750;2022-08-27T13:09:31;7.28;;;1.92;;
60292;SDS011;52402;52.670;6.750;2022-08-27T13:11:59;6.60;;;1.80;;
60292;SDS011;52402;52.670;6.750;2022-08-27T13:14:33;6.93;;;1.80;;
60292;SDS011;52402;52.670;6.750;2022-08-27T13:17:10;8.32;;;1.80;;
60292;SDS011;52402;52.670;6.750;2022-08-27T13:19:45;8.00;;;1.90;;
60292;SDS011;52402;52.670;6.750;2022-08-27T13:22:25;6.45;;;1.80;;
60292;SDS011;52402;52.670;6.750;2022-08-27T13:25:03;6.90;;;1.85;;
60292;SDS011;52402;52.670;6.750;2022-08-27T13:27:33;7.75;;;1.60;;
60292;SDS011;52402;52.670;6.750;2022-08-27T13:30:07;9.07;;;1.85;;
60292;SDS011;52402;52.670;6.750;2022-08-27T13:32:35;7.57;;;1.90;;
60292;SDS011;52402;52.670;6.750;2022-08-27T13:35:01;6.30;;;1.60;;
60292;SDS011;52402;52.670;6.750;2022-08-27T13:37:32;6.22;;;1.67;;
60292;SDS011;52402;52.670;6.750;2022-08-27T13:40:01;6.82;;;1.92;;
60292;SDS011;52402;52.670;6.750;2022-08-27T13:42:28;5.53;;;1.73;;
60292;SDS011;52402;52.670;6.750;2022-08-27T13:44:54;9.18;;;1.95;;
60292;SDS011;52402;52.670;6.750;2022-08-27T13:47:26;6.85;;;1.60;;
60292;SDS011;52402;52.670;6.750;2022-08-27T13:50:03;5.90;;;1.48;;
60292;SDS011;52402;52.670;6.750;2022-08-27T13:52:36;5.68;;;1.60;;
60292;SDS011;52402;52.670;6.750;2022-08-27T13:55:23;6.50;;;1.65;;
60292;SDS011;52402;52.670;6.750;2022-08-27T13:57:50;5.75;;;1.38;;
60292;SDS011;52402;52.670;6.750;2022-08-27T14:00:18;4.63;;;1.70;;
60292;SDS011;52402;52.670;6.750;2022-08-27T14:02:48;6.30;;;1.70;;
60292;SDS011;52402;52.670;6.750;2022-08-27T14:05:24;7.82;;;1.92;;
60292;SDS011;52402;52.670;6.750;2022-08-27T14:07:57;6.95;;;1.60;;
60292;SDS011;52402;52.670;6.750;2022-08-27T14:10:35;5.53;;;1.30;;
60292;SDS011;52402;52.670;6.750;2022-08-27T14:13:06;5.53;;;1.40;;
60292;SDS011;52402;52.670;6.750;2022-08-27T14:15:51;5.97;;;1.40;;
60292;SDS011;52402;52.670;6.750;2022-08-27T14:20:55;5.78;;;1.63;;
60292;SDS011;52402;52.670;6.750;2022-08-27T14:23:22;5.72;;;1.58;;
60292;SDS011;52402;52.670;6.750;2022-08-27T14:25:51;5.30;;;1.70;;
60292;SDS011;52402;52.670;6.750;2022-08-27T14:28:18;5.85;;;2.03;;
60292;SDS011;52402;52.670;6.750;2022-08-27T14:30:45;6.03;;;1.38;;
60292;SDS011;52402;52.670;6.750;2022-08-27T14:33:11;8.38;;;1.65;;
60292;SDS011;52402;52.670;6.750;2022-08-27T14:35:37;6.43;;;1.50;;
60292;SDS011;52402;52.670;6.750;2022-08-27T14:38:22;6.10;;;1.67;;
60292;SDS011;52402;52.670;6.750;2022-08-27T14:40:52;6.75;;;1.83;;
60292;SDS011;52402;52.670;6.750;2022-08-27T14:43:19;8.50;;;1.40;;
60292;SDS011;52402;52.670;6.750;2022-08-27T14:45:45;8.23;;;1.90;;
60292;SDS011;52402;52.670;6.750;2022-08-27T14:48:13;8.52;;;1.98;;
60292;SDS011;52402;52.670;6.750;2022-08-27T14:50:42;7.60;;;2.05;;
60292;SDS011;52402;52.670;6.750;2022-08-27T14:53:08;5.78;;;1.50;;
60292;SDS011;52402;52.670;6.750;2022-08-27T14:55:34;6.07;;;1.73;;
60292;SDS011;52402;52.670;6.750;2022-08-27T14:57:59;4.95;;;1.40;;
60292;SDS011;52402;52.670;6.750;2022-08-27T15:00:25;6.70;;;1.40;;
60292;SDS011;52402;52.670;6.750;2022-08-27T15:02:51;6.13;;;1.63;;
60292;SDS011;52402;52.670;6.750;2022-08-27T15:05:20;6.50;;;1.88;;
60292;SDS011;52402;52.670;6.750;2022-08-27T15:07:45;6.45;;;2.10;;
60292;SDS011;52402;52.670;6.750;2022-08-27T15:10:11;6.47;;;1.70;;
60292;SDS011;52402;52.670;6.750;2022-08-27T15:12:37;6.38;;;1.73;;
60292;SDS011;52402;52.670;6.750;2022-08-27T15:15:04;5.93;;;1.40;;
60292;SDS011;52402;52.670;6.750;2022-08-27T15:17:31;4.50;;;1.30;;
60292;SDS011;52402;52.670;6.750;2022-08-27T15:19:57;6.68;;;1.55;;
60292;SDS011;52402;52.670;6.750;2022-08-27T15:22:23;5.57;;;1.50;;
60292;SDS011;52402;52.670;6.750;2022-08-27T15:24:56;5.78;;;1.85;;
60292;SDS011;52402;52.670;6.750;2022-08-27T15:27:22;5.28;;;1.60;;
60292;SDS011;52402;52.670;6.750;2022-08-27T15:29:48;6.90;;;1.60;;
60292;SDS011;52402;52.670;6.750;2022-08-27T15:32:18;8.07;;;1.67;;
60292;SDS011;52402;52.670;6.750;2022-08-27T15:34:52;6.10;;;1.70;;
60292;SDS011;52402;52.670;6.750;2022-08-27T15:37:18;6.35;;;1.73;;
60292;SDS011;52402;52.670;6.750;2022-08-27T15:39:44;6.25;;;1.50;;
60292;SDS011;52402;52.670;6.750;2022-08-27T15:42:09;5.82;;;1.33;;
60292;SDS011;52402;52.670;6.750;2022-08-27T15:44:37;5.88;;;1.40;;
60292;SDS011;52402;52.670;6.750;2022-08-27T15:47:08;5.50;;;1.40;;
60292;SDS011;52402;52.670;6.750;2022-08-27T15:49:34;6.45;;;1.85;;
60292;SDS011;52402;52.670;6.750;2022-08-27T15:51:59;5.72;;;1.35;;
60292;SDS011;52402;52.670;6.750;2022-08-27T15:54:25;7.28;;;1.30;;
60292;SDS011;52402;52.670;6.750;2022-08-27T15:56:51;6.15;;;1.45;;
60292;SDS011;52402;52.670;6.750;2022-08-27T15:59:17;5.35;;;1.60;;
60292;SDS011;52402;52.670;6.750;2022-08-27T16:01:43;6.30;;;1.33;;
60292;SDS011;52402;52.670;6.750;2022-08-27T16:04:09;4.75;;;1.30;;
60292;SDS011;52402;52.670;6.750;2022-08-27T16:06:35;4.57;;;1.10;;
60292;SDS011;52402;52.670;6.750;2022-08-27T16:09:01;5.97;;;1.23;;
60292;SDS011;52402;52.670;6.750;2022-08-27T16:11:28;4.43;;;1.35;;
60292;SDS011;52402;52.670;6.750;2022-08-27T16:13:53;5.63;;;1.33;;
60292;SDS011;52402;52.670;6.750;2022-08-27T16:16:21;5.57;;;1.30;;
60292;SDS011;52402;52.670;6.750;2022-08-27T16:18:49;8.60;;;1.63;;
60292;SDS011;52402;52.670;6.750;2022-08-27T16:21:15;5.30;;;1.38;;
60292;SDS011;52402;52.670;6.750;2022-08-27T16:23:41;5.38;;;1.73;;
60292;SDS011;52402;52.670;6.750;2022-08-27T16:26:06;7.90;;;1.73;;
60292;SDS011;52402;52.670;6.750;2022-08-27T16:28:32;6.45;;;1.45;;
60292;SDS011;52402;52.670;6.750;2022-08-27T16:30:57;7.70;;;1.48;;
60292;SDS011;52402;52.670;6.750;2022-08-27T16:33:24;6.75;;;2.03;;
60292;SDS011;52402;52.670;6.750;2022-08-27T16:35:50;6.28;;;1.60;;